Terminal Aerodrome Forecast
Issued by NWS Dodge City, KS

Home | Current Version | Previous Version | Graphics & Text | Print | Product List | Glossary Off
Versions: 1 2 3 4 5 6 7 8 9 10 11 12 13 14 15 16 17 18 19

000
FTUS43 KDDC 141147 RRA
TAFDDC
TAF
KDDC 141147Z 1412/1512 18007KT 5SM BR BKN250 WS020/22040KT
     FM141500 21011KT P6SM SCT200
     FM142000 28018KT P6SM FEW250
     FM142100 31018KT P6SM FEW250
     FM142200 34026G34KT P6SM FEW250
     FM150000 35032G46KT P6SM FEW250
     FM151000 34020KT P6SM SKC=

USA.gov is the U.S. government's official web portal to all federal, state and local government web resources and services.